sensor_id;sensor_type;location;lat;lon;timestamp;P1;durP1;ratioP1;P2;durP2;ratioP2
60430;SDS011;46285;45.122;20.726;2023-02-11T00:06:47;420.45;;;231.20;;
60430;SDS011;46285;45.122;20.726;2023-02-11T00:16:48;468.08;;;274.88;;
60430;SDS011;46285;45.122;20.726;2023-02-11T00:26:49;493.13;;;269.05;;
60430;SDS011;46285;45.122;20.726;2023-02-11T00:36:50;533.80;;;302.45;;
60430;SDS011;46285;45.122;20.726;2023-02-11T00:46:51;567.50;;;321.73;;
60430;SDS011;46285;45.122;20.726;2023-02-11T00:56:53;568.13;;;326.08;;
60430;SDS011;46285;45.122;20.726;2023-02-11T01:06:54;652.25;;;356.20;;
60430;SDS011;46285;45.122;20.726;2023-02-11T01:16:55;619.75;;;358.60;;
60430;SDS011;46285;45.122;20.726;2023-02-11T01:26:56;592.42;;;330.40;;
60430;SDS011;46285;45.122;20.726;2023-02-11T01:36:57;506.13;;;280.25;;
60430;SDS011;46285;45.122;20.726;2023-02-11T01:46:59;421.38;;;216.77;;
60430;SDS011;46285;45.122;20.726;2023-02-11T01:57:00;361.83;;;185.50;;
60430;SDS011;46285;45.122;20.726;2023-02-11T02:07:04;358.23;;;179.88;;
60430;SDS011;46285;45.122;20.726;2023-02-11T02:17:06;268.80;;;136.10;;
60430;SDS011;46285;45.122;20.726;2023-02-11T02:37:26;206.52;;;107.07;;
60430;SDS011;46285;45.122;20.726;2023-02-11T02:47:30;187.05;;;99.53;;
60430;SDS011;46285;45.122;20.726;2023-02-11T03:07:55;176.55;;;89.05;;
60430;SDS011;46285;45.122;20.726;2023-02-11T03:17:58;137.45;;;73.22;;
60430;SDS011;46285;45.122;20.726;2023-02-11T03:28:03;145.90;;;81.07;;
60430;SDS011;46285;45.122;20.726;2023-02-11T03:38:07;107.13;;;58.37;;
60430;SDS011;46285;45.122;20.726;2023-02-11T03:48:17;138.02;;;72.97;;
60430;SDS011;46285;45.122;20.726;2023-02-11T03:58:19;123.30;;;67.95;;
60430;SDS011;46285;45.122;20.726;2023-02-11T04:08:21;145.52;;;77.13;;
60430;SDS011;46285;45.122;20.726;2023-02-11T04:18:22;149.10;;;82.07;;
60430;SDS011;46285;45.122;20.726;2023-02-11T04:28:23;150.43;;;80.60;;
60430;SDS011;46285;45.122;20.726;2023-02-11T04:38:24;144.13;;;75.20;;
60430;SDS011;46285;45.122;20.726;2023-02-11T04:48:25;149.02;;;82.05;;
60430;SDS011;46285;45.122;20.726;2023-02-11T04:58:26;156.63;;;85.10;;
60430;SDS011;46285;45.122;20.726;2023-02-11T05:08:27;163.60;;;88.55;;
60430;SDS011;46285;45.122;20.726;2023-02-11T05:18:28;157.10;;;87.47;;
60430;SDS011;46285;45.122;20.726;2023-02-11T05:28:30;167.82;;;87.07;;
60430;SDS011;46285;45.122;20.726;2023-02-11T05:38:31;169.35;;;88.78;;
60430;SDS011;46285;45.122;20.726;2023-02-11T05:48:32;177.63;;;97.57;;
60430;SDS011;46285;45.122;20.726;2023-02-11T05:58:33;167.40;;;98.32;;
60430;SDS011;46285;45.122;20.726;2023-02-11T06:08:34;174.40;;;103.88;;
60430;SDS011;46285;45.122;20.726;2023-02-11T06:18:36;205.88;;;113.13;;
60430;SDS011;46285;45.122;20.726;2023-02-11T06:28:37;222.13;;;127.95;;
60430;SDS011;46285;45.122;20.726;2023-02-11T06:38:38;221.00;;;125.97;;
60430;SDS011;46285;45.122;20.726;2023-02-11T06:48:39;173.27;;;98.90;;
60430;SDS011;46285;45.122;20.726;2023-02-11T06:58:40;187.13;;;110.60;;
60430;SDS011;46285;45.122;20.726;2023-02-11T07:08:42;190.77;;;113.60;;
60430;SDS011;46285;45.122;20.726;2023-02-11T07:18:43;191.50;;;104.90;;
60430;SDS011;46285;45.122;20.726;2023-02-11T07:28:44;176.90;;;105.20;;
60430;SDS011;46285;45.122;20.726;2023-02-11T07:38:46;168.00;;;103.65;;
60430;SDS011;46285;45.122;20.726;2023-02-11T07:48:47;135.18;;;82.15;;
60430;SDS011;46285;45.122;20.726;2023-02-11T07:58:49;159.40;;;95.85;;
60430;SDS011;46285;45.122;20.726;2023-02-11T08:08:50;126.55;;;82.70;;
60430;SDS011;46285;45.122;20.726;2023-02-11T08:18:52;133.82;;;80.32;;
60430;SDS011;46285;45.122;20.726;2023-02-11T08:28:54;134.50;;;83.68;;
60430;SDS011;46285;45.122;20.726;2023-02-11T08:38:57;123.85;;;81.75;;
60430;SDS011;46285;45.122;20.726;2023-02-11T08:48:58;216.60;;;110.50;;
60430;SDS011;46285;45.122;20.726;2023-02-11T08:59:00;130.30;;;81.13;;
60430;SDS011;46285;45.122;20.726;2023-02-11T09:09:01;116.93;;;71.28;;
60430;SDS011;46285;45.122;20.726;2023-02-11T09:19:02;107.43;;;66.18;;
60430;SDS011;46285;45.122;20.726;2023-02-11T09:29:04;109.10;;;67.35;;
60430;SDS011;46285;45.122;20.726;2023-02-11T09:39:06;113.40;;;67.50;;
60430;SDS011;46285;45.122;20.726;2023-02-11T09:49:14;166.25;;;99.70;;
60430;SDS011;46285;45.122;20.726;2023-02-11T09:59:17;147.48;;;82.90;;
60430;SDS011;46285;45.122;20.726;2023-02-11T10:29:37;66.43;;;43.47;;
60430;SDS011;46285;45.122;20.726;2023-02-11T10:39:40;94.35;;;53.30;;
60430;SDS011;46285;45.122;20.726;2023-02-11T10:49:43;74.38;;;45.13;;
60430;SDS011;46285;45.122;20.726;2023-02-11T10:59:44;99.05;;;57.63;;
60430;SDS011;46285;45.122;20.726;2023-02-11T11:09:57;60.60;;;39.85;;
60430;SDS011;46285;45.122;20.726;2023-02-11T11:30:18;52.40;;;32.40;;
60430;SDS011;46285;45.122;20.726;2023-02-11T11:40:24;61.97;;;40.13;;
60430;SDS011;46285;45.122;20.726;2023-02-11T11:50:26;63.38;;;36.67;;
60430;SDS011;46285;45.122;20.726;2023-02-11T12:00:34;51.63;;;36.10;;
60430;SDS011;46285;45.122;20.726;2023-02-11T12:10:47;54.03;;;36.00;;
60430;SDS011;46285;45.122;20.726;2023-02-11T13:01:38;55.05;;;37.60;;
60430;SDS011;46285;45.122;20.726;2023-02-11T13:11:42;97.28;;;59.90;;
60430;SDS011;46285;45.122;20.726;2023-02-11T13:32:07;90.03;;;63.15;;
60430;SDS011;46285;45.122;20.726;2023-02-11T13:42:11;48.78;;;33.38;;
60430;SDS011;46285;45.122;20.726;2023-02-11T13:52:19;52.85;;;33.95;;
60430;SDS011;46285;45.122;20.726;2023-02-11T14:02:23;50.17;;;32.75;;
60430;SDS011;46285;45.122;20.726;2023-02-11T14:12:29;70.93;;;39.20;;
60430;SDS011;46285;45.122;20.726;2023-02-11T14:22:49;67.50;;;42.88;;
60430;SDS011;46285;45.122;20.726;2023-02-11T14:43:15;108.50;;;63.20;;
60430;SDS011;46285;45.122;20.726;2023-02-11T14:53:18;115.38;;;57.83;;
60430;SDS011;46285;45.122;20.726;2023-02-11T15:03:38;63.00;;;37.70;;
60430;SDS011;46285;45.122;20.726;2023-02-11T15:13:39;72.75;;;46.53;;
60430;SDS011;46285;45.122;20.726;2023-02-11T15:23:41;68.03;;;43.40;;
60430;SDS011;46285;45.122;20.726;2023-02-11T15:33:54;153.73;;;81.70;;
60430;SDS011;46285;45.122;20.726;2023-02-11T15:43:55;304.60;;;157.00;;
60430;SDS011;46285;45.122;20.726;2023-02-11T15:53:57;291.73;;;148.60;;
60430;SDS011;46285;45.122;20.726;2023-02-11T16:03:59;335.10;;;163.00;;
60430;SDS011;46285;45.122;20.726;2023-02-11T16:14:01;303.88;;;167.90;;
60430;SDS011;46285;45.122;20.726;2023-02-11T16:34:20;337.75;;;171.80;;
60430;SDS011;46285;45.122;20.726;2023-02-11T16:44:22;473.05;;;255.27;;
60430;SDS011;46285;45.122;20.726;2023-02-11T16:54:24;385.98;;;212.98;;
60430;SDS011;46285;45.122;20.726;2023-02-11T17:04:27;353.13;;;183.75;;
60430;SDS011;46285;45.122;20.726;2023-02-11T17:14:28;330.05;;;153.55;;
60430;SDS011;46285;45.122;20.726;2023-02-11T17:24:29;310.05;;;159.00;;
60430;SDS011;46285;45.122;20.726;2023-02-11T17:34:30;347.67;;;171.13;;
60430;SDS011;46285;45.122;20.726;2023-02-11T17:44:32;354.63;;;185.38;;
60430;SDS011;46285;45.122;20.726;2023-02-11T17:54:33;320.10;;;164.23;;
60430;SDS011;46285;45.122;20.726;2023-02-11T18:04:34;474.30;;;256.90;;
60430;SDS011;46285;45.122;20.726;2023-02-11T18:14:39;716.33;;;410.10;;
60430;SDS011;46285;45.122;20.726;2023-02-11T18:24:40;307.60;;;152.07;;
60430;SDS011;46285;45.122;20.726;2023-02-11T18:34:41;312.23;;;158.85;;
60430;SDS011;46285;45.122;20.726;2023-02-11T18:44:44;287.50;;;143.98;;
60430;SDS011;46285;45.122;20.726;2023-02-11T18:54:45;310.27;;;141.48;;
60430;SDS011;46285;45.122;20.726;2023-02-11T19:04:46;241.35;;;131.23;;
60430;SDS011;46285;45.122;20.726;2023-02-11T19:14:47;175.32;;;94.35;;
60430;SDS011;46285;45.122;20.726;2023-02-11T19:24:48;208.20;;;116.43;;
60430;SDS011;46285;45.122;20.726;2023-02-11T19:34:49;172.18;;;97.55;;
60430;SDS011;46285;45.122;20.726;2023-02-11T19:44:50;242.00;;;113.95;;
60430;SDS011;46285;45.122;20.726;2023-02-11T19:54:51;213.25;;;105.68;;
60430;SDS011;46285;45.122;20.726;2023-02-11T20:04:52;323.45;;;162.02;;
60430;SDS011;46285;45.122;20.726;2023-02-11T20:14:53;377.95;;;167.75;;
60430;SDS011;46285;45.122;20.726;2023-02-11T20:24:56;324.75;;;162.93;;
60430;SDS011;46285;45.122;20.726;2023-02-11T20:34:57;253.88;;;128.90;;
60430;SDS011;46285;45.122;20.726;2023-02-11T20:44:58;168.27;;;90.47;;
60430;SDS011;46285;45.122;20.726;2023-02-11T20:54:59;154.88;;;81.68;;
60430;SDS011;46285;45.122;20.726;2023-02-11T21:05:00;178.63;;;91.55;;
60430;SDS011;46285;45.122;20.726;2023-02-11T21:15:02;157.82;;;88.88;;
60430;SDS011;46285;45.122;20.726;2023-02-11T21:25:03;149.00;;;87.57;;
60430;SDS011;46285;45.122;20.726;2023-02-11T21:35:04;119.78;;;68.53;;
60430;SDS011;46285;45.122;20.726;2023-02-11T21:45:06;163.88;;;91.53;;
60430;SDS011;46285;45.122;20.726;2023-02-11T21:55:08;204.38;;;100.70;;
60430;SDS011;46285;45.122;20.726;2023-02-11T22:05:09;221.73;;;103.72;;
60430;SDS011;46285;45.122;20.726;2023-02-11T22:15:11;141.73;;;79.40;;
60430;SDS011;46285;45.122;20.726;2023-02-11T22:25:13;152.63;;;87.38;;
60430;SDS011;46285;45.122;20.726;2023-02-11T22:35:14;151.23;;;82.78;;
60430;SDS011;46285;45.122;20.726;2023-02-11T22:45:15;94.45;;;60.05;;
60430;SDS011;46285;45.122;20.726;2023-02-11T22:55:16;101.38;;;56.47;;
60430;SDS011;46285;45.122;20.726;2023-02-11T23:05:17;122.47;;;65.15;;
60430;SDS011;46285;45.122;20.726;2023-02-11T23:15:18;115.03;;;61.85;;
60430;SDS011;46285;45.122;20.726;2023-02-11T23:25:19;125.15;;;68.15;;
60430;SDS011;46285;45.122;20.726;2023-02-11T23:35:21;108.13;;;64.57;;
60430;SDS011;46285;45.122;20.726;2023-02-11T23:45:22;90.38;;;57.95;;
60430;SDS011;46285;45.122;20.726;2023-02-11T23:55:23;108.55;;;66.22;;
